Time;durP1;ratioP1;P1;durP2;ratioP2;P2;SDS_P1;SDS_P2;PMS_P1;PMS_P2;Temp;Humidity;BMP_temperature;BMP_pressure;BME280_temperature;BME280_humidity;BME280_pressure;Samples;Min_cycle;Max_cycle;Signal;HPM_P1;HPM_P2
2021/05/16 00:01:55;;;;;;;0.65;0.65;;;;;;;6.61;100.00;98080.81;4918530;28;20043;-74
2021/05/16 00:05:00;;;;;;;0.77;0.77;;;;;;;6.59;100.00;98075.00;4919050;29;20074;-74
2021/05/16 00:08:04;;;;;;;0.80;0.80;;;;;;;6.56;100.00;98081.53;4919865;29;20244;-74
2021/05/16 00:11:08;;;;;;;0.57;0.57;;;;;;;6.47;100.00;98070.66;4919401;29;20105;-74
2021/05/16 00:14:12;;;;;;;0.75;0.75;;;;;;;6.41;100.00;98073.38;4919115;29;20046;-74
2021/05/16 00:17:18;;;;;;;0.65;0.65;;;;;;;6.35;100.00;98061.50;4922243;29;20043;-75
2021/05/16 00:20:28;;;;;;;0.50;0.50;;;;;;;6.32;100.00;98064.50;4921207;29;20039;-75
2021/05/16 00:23:32;;;;;;;0.65;0.65;;;;;;;6.34;100.00;98073.06;4922524;29;20046;-74
2021/05/16 00:26:37;;;;;;;0.50;0.50;;;;;;;6.32;100.00;98070.03;4921038;29;20054;-74
2021/05/16 00:30:04;;;;;;;3.25;1.02;;;;;;;6.31;100.00;98072.03;4925210;29;20047;-74
2021/05/16 00:33:09;;;;;;;1.20;1.05;;;;;;;6.31;100.00;98074.03;4932646;28;20749;-74
2021/05/16 00:36:15;;;;;;;0.50;0.50;;;;;;;6.30;100.00;98067.00;4929452;29;20050;-74
2021/05/16 00:39:19;;;;;;;1.13;1.05;;;;;;;6.26;100.00;98072.00;4921892;29;20050;-74
2021/05/16 00:42:24;;;;;;;0.40;0.40;;;;;;;6.20;100.00;98062.88;4922447;29;20460;-74
2021/05/16 00:45:28;;;;;;;3.35;1.17;;;;;;;6.14;100.00;98065.59;4932777;28;20054;-74
2021/05/16 00:48:33;;;;;;;1.27;0.85;;;;;;;6.07;100.00;98066.03;4922104;29;20050;-74
2021/05/16 00:51:37;;;;;;;0.40;0.40;;;;;;;6.02;100.00;98064.75;4921420;29;20047;-74
2021/05/16 00:54:42;;;;;;;0.80;0.80;;;;;;;5.92;100.00;98060.63;4921062;29;20034;-74
2021/05/16 00:57:48;;;;;;;0.73;0.73;;;;;;;5.79;100.00;98054.69;4931980;28;20042;-74
2021/05/16 01:00:53;;;;;;;0.63;0.63;;;;;;;5.69;100.00;98053.34;4921046;29;20050;-74
2021/05/16 01:03:57;;;;;;;0.55;0.55;;;;;;;5.57;100.00;98059.22;4920910;29;20066;-73
2021/05/16 01:07:02;;;;;;;0.47;0.47;;;;;;;5.43;100.00;98058.06;4920781;29;20237;-74
2021/05/16 01:10:10;;;;;;;3.67;1.10;;;;;;;5.29;100.00;98064.41;4931179;28;20058;-74
2021/05/16 01:13:16;;;;;;;1.05;0.90;;;;;;;5.19;100.00;98054.78;4920619;28;20034;-74
2021/05/16 01:16:20;;;;;;;0.93;0.93;;;;;;;5.14;100.00;98060.97;4921289;29;20491;-74
2021/05/16 01:19:25;;;;;;;0.50;0.50;;;;;;;5.07;100.00;98055.84;4920376;29;20042;-75
2021/05/16 01:22:28;;;;;;;0.77;0.77;;;;;;;5.07;100.00;98055.84;4930754;28;20323;-74
2021/05/16 01:25:43;;;;;;;7.47;1.30;;;;;;;5.07;100.00;98053.84;4920775;29;20066;-74
2021/05/16 01:28:47;;;;;;;0.93;0.93;;;;;;;5.06;100.00;98051.59;4920532;29;20042;-73
2021/05/16 01:31:52;;;;;;;1.65;0.90;;;;;;;5.03;100.00;98053.31;4920964;29;20416;-73
2021/05/16 01:34:56;;;;;;;0.90;0.90;;;;;;;4.99;100.00;98052.75;4920421;29;20035;-73
2021/05/16 01:38:03;;;;;;;1.08;0.95;;;;;;;4.96;100.00;98052.97;4920663;29;20264;-73
2021/05/16 01:41:07;;;;;;;2.40;1.08;;;;;;;4.92;100.00;98053.16;4918324;29;20058;-73
2021/05/16 01:44:13;;;;;;;0.95;0.95;;;;;;;4.88;100.00;98051.84;4904795;29;20061;-73
2021/05/16 01:47:18;;;;;;;0.65;0.65;;;;;;;4.84;100.00;98059.56;4904616;29;20280;-73
2021/05/16 01:50:29;;;;;;;1.13;1.13;;;;;;;4.80;100.00;98056.25;4916988;29;20054;-72
2021/05/16 01:53:36;;;;;;;0.95;0.95;;;;;;;4.76;100.00;98050.19;4916668;29;20062;-73
2021/05/16 01:56:39;;;;;;;1.05;1.05;;;;;;;4.73;100.00;98048.38;4916856;29;20333;-73
2021/05/16 01:59:44;;;;;;;1.05;0.85;;;;;;;4.69;100.00;98045.06;4915816;29;20530;-73
2021/05/16 02:02:49;;;;;;;0.80;0.80;;;;;;;4.65;100.00;98045.28;4915917;29;20412;-72
2021/05/16 02:05:55;;;;;;;1.00;0.88;;;;;;;4.63;100.00;98042.97;4915516;29;20138;-72
2021/05/16 02:08:59;;;;;;;0.63;0.63;;;;;;;4.62;100.00;98032.44;4914487;29;20046;-72
2021/05/16 02:12:03;;;;;;;1.13;1.00;;;;;;;4.59;100.00;98034.16;4915246;29;20491;-73
2021/05/16 02:15:11;;;;;;;0.70;0.68;;;;;;;4.59;100.00;98036.91;4916136;29;20269;-72
2021/05/16 02:18:17;;;;;;;0.90;0.90;;;;;;;4.57;100.00;98025.59;4918264;29;20073;-72
2021/05/16 02:21:22;;;;;;;0.85;0.85;;;;;;;4.55;100.00;98028.06;4916074;29;20034;-72
2021/05/16 02:24:26;;;;;;;4.38;1.27;;;;;;;4.54;100.00;98031.31;4911702;28;20057;-73
2021/05/16 02:27:31;;;;;;;1.40;1.30;;;;;;;4.55;100.00;98039.09;4916026;29;20050;-72
2021/05/16 02:30:37;;;;;;;0.95;0.95;;;;;;;4.56;100.00;98039.88;4901953;29;20719;-73
2021/05/16 02:33:41;;;;;;;2.55;1.10;;;;;;;4.55;100.00;98039.09;4904334;29;20530;-72
2021/05/16 02:36:45;;;;;;;1.40;1.23;;;;;;;4.58;100.00;98040.91;4913815;29;20030;-73
2021/05/16 02:39:48;;;;;;;0.82;0.82;;;;;;;4.54;100.00;98045.88;4914340;29;20042;-73
2021/05/16 02:42:54;;;;;;;1.23;1.13;;;;;;;4.55;100.00;98041.09;4914329;29;20038;-72
2021/05/16 02:45:58;;;;;;;0.90;0.90;;;;;;;4.53;100.00;98043.56;4913927;29;20047;-73
2021/05/16 02:49:05;;;;;;;2.13;1.27;;;;;;;4.52;100.00;98048.34;4916667;29;20042;-73
2021/05/16 02:52:09;;;;;;;0.93;0.90;;;;;;;4.55;100.00;98041.84;4917475;29;20054;-73
2021/05/16 02:55:15;;;;;;;1.88;1.63;;;;;;;4.53;100.00;98038.06;4913201;29;20150;-73
2021/05/16 02:58:18;;;;;;;6.68;1.15;;;;;;;4.51;100.00;98044.06;4902050;29;20050;-73
2021/05/16 03:01:22;;;;;;;1.35;1.30;;;;;;;4.49;100.00;98040.25;4916631;29;20058;-72
2021/05/16 03:04:27;;;;;;;4.90;1.63;;;;;;;4.50;100.00;98039.78;4915672;29;20965;-73
2021/05/16 03:07:33;;;;;;;0.82;0.82;;;;;;;4.50;100.00;98025.25;4912827;29;20306;-73
2021/05/16 03:10:39;;;;;;;0.77;0.77;;;;;;;4.54;100.00;98040.34;4916854;29;20489;-73
2021/05/16 03:13:43;;;;;;;3.60;1.45;;;;;;;4.61;100.00;98028.91;4914414;29;20035;-72
2021/05/16 03:16:47;;;;;;;0.70;0.70;;;;;;;4.67;100.00;98025.47;4915372;29;20030;-75
2021/05/16 03:19:52;;;;;;;0.75;0.75;;;;;;;4.72;100.00;98027.56;4903394;29;20226;-73
2021/05/16 03:22:57;;;;;;;0.60;0.57;;;;;;;4.75;100.00;98029.34;4914972;29;20046;-73
2021/05/16 03:26:02;;;;;;;2.90;0.57;;;;;;;4.77;100.00;98029.63;4914502;29;20432;-73
2021/05/16 03:29:07;;;;;;;1.02;1.02;;;;;;;4.78;100.00;98025.63;4913538;29;20480;-73
2021/05/16 03:32:11;;;;;;;1.52;1.30;;;;;;;4.80;100.00;98023.94;4914170;29;20371;-73
2021/05/16 03:35:15;;;;;;;0.82;0.82;;;;;;;4.83;100.00;98019.44;4901705;28;20527;-73
2021/05/16 03:38:21;;;;;;;1.10;0.80;;;;;;;4.86;100.00;98021.22;4917040;29;20034;-73
2021/05/16 03:41:26;;;;;;;0.98;0.98;;;;;;;4.89;100.00;98025.78;4918809;29;20372;-73
2021/05/16 03:44:31;;;;;;;1.10;1.05;;;;;;;4.92;100.00;98017.31;4915944;29;20066;-73
2021/05/16 03:47:38;;;;;;;1.15;1.05;;;;;;;4.95;100.00;98015.59;4916544;29;20120;-73
2021/05/16 03:50:42;;;;;;;1.65;1.45;;;;;;;4.93;100.00;98009.78;4905538;29;20285;-73
2021/05/16 03:53:48;;;;;;;4.07;2.03;;;;;;;4.97;100.00;98013.09;4907805;29;20058;-73
2021/05/16 03:56:53;;;;;;;1.85;1.58;;;;;;;5.00;100.00;98007.38;4919932;29;20031;-73
2021/05/16 03:59:57;;;;;;;2.05;0.70;;;;;;;5.03;100.00;98006.41;4919153;29;20574;-73
2021/05/16 04:03:01;;;;;;;1.20;0.93;;;;;;;5.06;100.00;98007.44;4909525;29;20412;-73
2021/05/16 04:06:07;;;;;;;2.05;1.13;;;;;;;5.06;100.00;98007.44;4919340;29;20431;-73
2021/05/16 04:09:12;;;;;;;4.03;1.10;;;;;;;5.06;100.00;98001.94;4905897;29;20039;-73
2021/05/16 04:12:17;;;;;;;0.75;0.75;;;;;;;5.08;100.00;98004.97;4916731;29;20589;-73
2021/05/16 04:15:21;;;;;;;3.08;1.08;;;;;;;5.07;100.00;98003.44;4904869;29;20701;-73
2021/05/16 04:18:26;;;;;;;1.92;1.20;;;;;;;5.02;100.00;98006.91;4916986;29;20038;-73
2021/05/16 04:21:30;;;;;;;0.75;0.75;;;;;;;4.99;100.00;98007.84;4904890;29;20401;-73
2021/05/16 04:24:34;;;;;;;1.15;1.15;;;;;;;4.97;100.00;98005.59;4918279;29;20420;-74
2021/05/16 04:27:38;;;;;;;0.57;0.52;;;;;;;4.99;100.00;98013.38;4914295;29;20438;-71
2021/05/16 04:30:42;;;;;;;0.80;0.80;;;;;;;5.00;100.00;98009.38;4917004;29;20361;-73
2021/05/16 04:33:49;;;;;;;4.43;1.02;;;;;;;5.03;100.00;98002.88;4918045;29;20051;-71
2021/05/16 04:37:11;;;;;;;6.95;1.13;;;;;;;5.04;100.00;98007.94;4906618;29;20047;-73
2021/05/16 04:40:18;;;;;;;0.98;0.98;;;;;;;5.04;100.00;98005.19;4909699;29;20039;-75
2021/05/16 04:43:22;;;;;;;1.20;1.20;;;;;;;5.06;100.00;98012.97;4910586;29;20217;-75
2021/05/16 04:46:26;;;;;;;1.45;1.02;;;;;;;5.05;100.00;98011.44;4898533;29;20181;-75
2021/05/16 04:49:30;;;;;;;1.55;0.90;;;;;;;5.05;100.00;98006.69;4910813;29;20031;-75
2021/05/16 04:52:34;;;;;;;0.65;0.65;;;;;;;5.07;100.00;98011.72;4910333;29;20062;-75
2021/05/16 04:55:38;;;;;;;6.35;2.15;;;;;;;5.07;100.00;98008.94;4910727;29;20062;-76
2021/05/16 04:58:41;;;;;;;1.27;0.73;;;;;;;5.12;100.00;98016.53;4899613;29;20090;-74
2021/05/16 05:01:45;;;;;;;6.60;0.63;;;;;;;5.23;100.00;98020.22;4912451;29;20206;-76
2021/05/16 05:04:48;;;;;;;2.55;1.10;;;;;;;5.32;100.00;98011.03;4911365;29;20241;-75
2021/05/16 05:07:52;;;;;;;2.47;1.02;;;;;;;5.30;100.00;98010.75;4908832;29;20058;-73
2021/05/16 05:10:56;;;;;;;1.02;1.00;;;;;;;5.20;100.00;98009.38;4910180;29;20392;-73
2021/05/16 05:14:00;;;;;;;0.60;0.60;;;;;;;5.09;100.00;98012.00;4910612;29;20355;-75
2021/05/16 05:17:04;;;;;;;1.48;1.38;;;;;;;5.01;100.00;98010.88;4909023;29;20138;-76
2021/05/16 05:20:08;;;;;;;1.00;1.00;;;;;;;4.99;100.00;98010.63;4908894;29;20038;-74
2021/05/16 05:23:12;;;;;;;0.60;0.60;;;;;;;4.98;100.00;98011.88;4909801;29;20086;-74
2021/05/16 05:26:16;;;;;;;2.05;1.30;;;;;;;4.90;100.00;98013.50;4910751;29;20050;-74
2021/05/16 05:29:19;;;;;;;4.50;1.20;;;;;;;4.83;100.00;98016.69;4910027;29;20050;-75
2021/05/16 05:32:23;;;;;;;5.32;1.85;;;;;;;4.84;100.00;98023.72;4911470;29;20573;-72
2021/05/16 05:35:27;;;;;;;0.70;0.70;;;;;;;4.83;100.00;98017.44;4899522;29;20499;-74
2021/05/16 05:38:30;;;;;;;1.10;1.10;;;;;;;4.86;100.00;98018.47;4897159;29;20261;-74
2021/05/16 05:41:34;;;;;;;3.42;1.45;;;;;;;4.91;100.00;98017.78;4905949;29;20262;-73
2021/05/16 05:44:40;;;;;;;3.83;2.42;;;;;;;4.99;100.00;98013.38;4882717;29;20222;-74
2021/05/16 05:47:43;;;;;;;6.45;1.88;;;;;;;4.98;100.00;98009.13;4893754;29;20668;-75
2021/05/16 05:50:47;;;;;;;1.73;1.70;;;;;;;4.99;100.00;98013.38;4895077;29;20259;-74
2021/05/16 05:53:50;;;;;;;1.58;1.20;;;;;;;4.96;100.00;98015.09;4894791;29;20067;-74
2021/05/16 05:56:54;;;;;;;7.18;3.22;;;;;;;4.95;100.00;98007.31;4896244;29;20496;-74
2021/05/16 05:59:59;;;;;;;7.50;3.22;;;;;;;4.99;100.00;98008.63;4912793;28;20459;-73
2021/05/16 06:03:03;;;;;;;10.18;4.80;;;;;;;5.10;100.00;98008.75;4912756;29;20038;-74
2021/05/16 06:06:07;;;;;;;7.43;3.53;;;;;;;5.16;100.00;98008.81;4902121;29;20264;-74
2021/05/16 06:09:10;;;;;;;5.78;2.72;;;;;;;5.26;100.00;98008.19;4893234;29;20614;-74
2021/05/16 06:12:14;;;;;;;22.98;3.25;;;;;;;5.40;100.00;98003.81;4892090;29;20058;-71
2021/05/16 06:15:19;;;;;;;1.83;1.73;;;;;;;5.65;100.00;98008.59;4892626;29;20058;-74
2021/05/16 06:18:23;;;;;;;0.95;0.95;;;;;;;6.03;100.00;98008.25;4880992;29;20043;-73
2021/05/16 06:21:28;;;;;;;1.35;1.05;;;;;;;6.30;100.00;98006.19;4880958;29;20139;-74
2021/05/16 06:24:31;;;;;;;0.73;0.52;;;;;;;6.69;100.00;98016.25;4884062;29;20264;-73
2021/05/16 06:27:35;;;;;;;6.03;1.33;;;;;;;7.04;100.00;98013.16;4910984;29;20258;-74
2021/05/16 06:30:38;;;;;;;2.15;1.48;;;;;;;7.38;100.00;98019.59;4911480;29;20308;-74
2021/05/16 06:33:41;;;;;;;0.95;0.68;;;;;;;7.56;100.00;98017.13;4911259;29;21045;-74
2021/05/16 06:36:45;;;;;;;3.13;0.88;;;;;;;7.80;100.00;98010.38;4911375;29;20277;-74
2021/05/16 06:39:48;;;;;;;0.45;0.45;;;;;;;8.09;100.00;98021.00;4913286;29;20042;-75
2021/05/16 06:42:53;;;;;;;12.15;1.92;;;;;;;8.13;100.00;98015.97;4912732;29;20697;-74
2021/05/16 06:45:57;;;;;;;4.60;1.55;;;;;;;8.20;100.00;98013.47;4911130;29;20050;-73
2021/05/16 06:49:01;;;;;;;7.75;1.00;;;;;;;8.34;100.00;98008.94;4912575;29;20166;-74
2021/05/16 06:52:05;;;;;;;2.63;0.93;;;;;;;8.40;100.00;98012.47;4911897;29;20027;-74
2021/05/16 06:55:09;;;;;;;0.93;0.90;;;;;;;8.42;100.00;98015.50;4912815;29;20050;-74
2021/05/16 06:58:14;;;;;;;1.73;0.68;;;;;;;8.48;100.00;98010.69;4899854;29;20035;-74
2021/05/16 07:01:18;;;;;;;4.43;0.80;;;;;;;8.65;100.00;98011.44;4912527;29;20250;-74
2021/05/16 07:04:21;;;;;;;1.13;0.50;;;;;;;8.93;100.00;98008.59;4911162;29;20038;-75
2021/05/16 07:07:25;;;;;;;6.72;1.52;;;;;;;9.24;100.00;98013.03;4912926;29;20531;-74
2021/05/16 07:10:29;;;;;;;1.75;0.47;;;;;;;9.53;100.00;98015.19;4914241;28;20608;-75
2021/05/16 07:13:33;;;;;;;5.68;0.55;;;;;;;9.66;100.00;98007.75;4917095;29;20043;-75
2021/05/16 07:16:37;;;;;;;10.27;0.73;;;;;;;9.85;100.00;98010.69;4904702;29;20058;-74
2021/05/16 07:19:40;;;;;;;0.82;0.55;;;;;;;10.01;100.00;98007.03;4916507;29;20050;-74
2021/05/16 07:22:44;;;;;;;4.93;2.45;;;;;;;10.15;100.00;98003.19;4916986;29;20340;-75
2021/05/16 07:25:48;;;;;;;5.05;1.60;;;;;;;10.24;100.00;98011.19;4903079;29;20034;-74
2021/05/16 07:28:51;;;;;;;5.38;1.10;;;;;;;10.15;100.00;98005.97;4918892;29;20042;-75
2021/05/16 07:31:55;;;;;;;3.13;0.45;;;;;;;9.94;100.00;98007.56;4916829;29;20054;-74
2021/05/16 07:34:59;;;;;;;1.20;0.47;;;;;;;9.88;100.00;98004.09;4915167;29;20569;-74
2021/05/16 07:38:03;;;;;;;13.57;0.75;;;;;;;9.92;100.00;98004.56;4902065;29;20234;-75
2021/05/16 07:41:06;;;;;;;0.63;0.45;;;;;;;9.91;100.00;98011.41;4915233;29;20035;-74
2021/05/16 07:44:10;;;;;;;8.30;1.00;;;;;;;10.35;100.00;97999.94;4915118;29;20050;-74
2021/05/16 07:47:13;;;;;;;1.17;0.90;;;;;;;10.71;100.00;97997.88;4914624;29;20069;-74
2021/05/16 07:50:17;;;;;;;3.97;1.45;;;;;;;10.96;100.00;98002.16;4915519;29;20275;-74
2021/05/16 07:53:22;;;;;;;2.20;0.88;;;;;;;11.13;100.00;97999.19;4914223;29;20038;-73
2021/05/16 07:56:25;;;;;;;1.15;0.75;;;;;;;11.19;100.00;97988.72;4914554;29;20166;-73
2021/05/16 07:59:30;;;;;;;1.23;0.52;;;;;;;11.04;100.00;97991.19;4915224;29;20054;-73
2021/05/16 08:02:34;;;;;;;3.70;0.57;;;;;;;10.84;100.00;97994.44;4903564;29;20054;-74
2021/05/16 08:05:37;;;;;;;0.65;0.32;;;;;;;10.92;100.00;97984.97;4914972;29;20050;-73
2021/05/16 08:08:41;;;;;;;0.47;0.47;;;;;;;11.05;100.00;97976.72;4902027;29;20685;-73
2021/05/16 08:11:44;;;;;;;1.45;0.43;;;;;;;11.02;100.00;97977.03;4914241;29;20050;-73
2021/05/16 08:14:48;;;;;;;1.35;0.63;;;;;;;11.06;100.00;97980.28;4902046;29;20664;-73
2021/05/16 08:17:52;;;;;;;1.08;0.57;;;;;;;11.44;100.00;97973.44;4902760;29;20287;-73
2021/05/16 08:20:57;;;;;;;14.27;0.85;;;;;;;11.91;100.00;97977.38;4912987;29;20042;-73
2021/05/16 08:24:00;;;;;;;1.65;0.10;;;;;;;12.02;100.00;97968.06;4912204;29;20411;-72
2021/05/16 08:27:08;;;;;;;8.18;0.77;;;;;;;12.23;100.00;97973.84;4910065;29;20416;-73
2021/05/16 08:30:12;;;;;;;1.08;0.52;;;;;;;12.66;100.00;97968.78;4912700;29;21087;-73
2021/05/16 08:33:17;;;;;;;9.98;0.90;;;;;;;12.89;100.00;97965.03;4912434;29;20251;-73
2021/05/16 08:36:20;;;;;;;0.55;0.45;;;;;;;12.83;100.00;97966.41;4914490;29;20042;-73
2021/05/16 08:39:24;;;;;;;2.97;0.50;;;;;;;12.64;100.00;97968.56;4914886;29;20038;-73
2021/05/16 08:42:29;;;;;;;1.23;0.43;;;;;;;12.65;100.00;97965.22;4915232;29;20046;-73
2021/05/16 08:45:33;;;;;;;0.68;0.40;;;;;;;12.58;100.00;97965.13;4914124;29;20098;-73
2021/05/16 08:48:39;;;;;;;4.40;0.95;;;;;;;12.64;100.00;97957.38;4914619;29;20289;-74
2021/05/16 08:51:49;;;;;;;13.75;0.82;;;;;;;12.58;100.00;97956.75;4914674;29;20046;-74
2021/05/16 08:54:53;;;;;;;0.47;0.40;;;;;;;12.46;100.00;97964.56;4914962;29;20396;-74
2021/05/16 08:57:56;;;;;;;1.50;0.70;;;;;;;12.41;100.00;97956.28;4915751;29;20512;-75
2021/05/16 09:01:00;;;;;;;0.38;0.20;;;;;;;12.40;100.00;97954.78;4915686;29;20050;-74
2021/05/16 09:04:19;;;;;;;0.52;0.22;;;;;;;12.23;100.00;97952.28;4915243;29;20253;-74
2021/05/16 09:07:29;;;;;;;1.45;0.52;;;;;;;12.07;100.00;97945.69;4914650;29;20483;-74
2021/05/16 09:10:34;;;;;;;2.17;0.50;;;;;;;12.34;100.00;97951.31;4901730;29;20054;-73
2021/05/16 09:13:43;;;;;;;3.90;0.63;;;;;;;12.78;100.00;97953.31;4915456;29;20519;-75
2021/05/16 09:16:47;;;;;;;2.40;0.75;;;;;;;13.05;100.00;97945.72;4902869;29;20051;-74
2021/05/16 09:19:53;;;;;;;1.30;1.13;;;;;;;13.20;100.00;97946.66;4914646;29;20174;-73
2021/05/16 09:22:57;;;;;;;4.70;0.35;;;;;;;13.37;100.00;97946.31;4913014;29;20150;-74
2021/05/16 09:26:12;;;;;;;4.60;0.30;;;;;;;13.55;100.00;97954.56;4913867;29;20054;-74
2021/05/16 09:29:22;;;;;;;1.60;0.68;;;;;;;13.58;100.00;97959.06;4903133;29;20070;-75
2021/05/16 09:32:27;;;;;;;4.28;0.50;;;;;;;13.64;100.00;97951.28;4904904;29;20050;-74
2021/05/16 09:35:40;;;;;;;2.67;1.35;;;;;;;13.59;100.00;97946.59;4924286;28;20300;-74
2021/05/16 09:38:44;;;;;;;3.78;0.30;;;;;;;13.84;100.00;97946.28;4913679;29;20150;-74
2021/05/16 09:42:08;;;;;;;0.20;0.20;;;;;;;13.60;100.00;97939.69;4913813;29;20050;-75
2021/05/16 09:45:12;;;;;;;2.28;0.65;;;;;;;13.81;100.00;97934.13;4914105;29;20072;-74
2021/05/16 09:48:30;;;;;;;4.68;0.63;;;;;;;14.27;100.00;97938.84;4914985;29;20378;-74
2021/05/16 09:51:35;;;;;;;0.43;0.10;;;;;;;13.94;100.00;97930.53;4913848;29;20034;-75
2021/05/16 09:55:06;;;;;;;1.05;0.38;;;;;;;13.60;100.00;97939.69;4927323;28;20109;-72
2021/05/16 09:58:09;;;;;;;0.30;0.30;;;;;;;13.18;100.00;97940.09;4924794;29;20050;-72
2021/05/16 10:01:15;;;;;;;1.75;0.50;;;;;;;13.13;100.00;97936.13;4920577;29;20058;-74
2021/05/16 10:04:19;;;;;;;0.52;0.10;;;;;;;13.12;100.00;97934.63;4921604;29;20341;-73
2021/05/16 10:07:23;;;;;;;0.82;0.28;;;;;;;13.16;100.00;97935.06;4916896;29;20046;-72
2021/05/16 10:10:27;;;;;;;1.45;0.70;;;;;;;13.07;100.00;97935.50;4919963;29;20347;-72
2021/05/16 10:13:36;;;;;;;1.20;0.30;;;;;;;12.87;100.00;97930.53;4913992;29;20307;-72
2021/05/16 10:16:45;;;;;;;5.18;0.60;;;;;;;12.76;100.00;97931.50;4911256;29;20054;-73
2021/05/16 10:19:50;;;;;;;2.33;0.32;;;;;;;12.78;100.00;97937.31;4913221;29;20273;-72
2021/05/16 10:22:56;;;;;;;8.95;0.50;;;;;;;12.85;100.00;97933.13;4911890;29;20042;-73
2021/05/16 10:26:21;;;;;;;0.85;0.25;;;;;;;12.84;100.00;97932.34;4914597;29;20097;-73
2021/05/16 10:29:46;;;;;;;7.25;0.50;;;;;;;12.70;100.00;97932.91;4912942;29;20615;-72
2021/05/16 10:32:50;;;;;;;0.85;0.13;;;;;;;12.55;100.00;97932.66;4910791;29;20073;-72
2021/05/16 10:35:54;;;;;;;0.82;0.60;;;;;;;12.36;100.00;97935.56;4913203;29;20034;-74
2021/05/16 10:38:57;;;;;;;6.90;1.15;;;;;;;12.27;100.00;97935.19;4912143;29;20042;-74
2021/05/16 10:42:31;;;;;;;0.47;0.22;;;;;;;12.47;100.00;97929.78;4913605;29;20188;-74
2021/05/16 10:45:39;;;;;;;2.28;0.57;;;;;;;13.17;100.00;97925.38;4900418;29;20062;-74
2021/05/16 10:48:42;;;;;;;0.10;0.10;;;;;;;14.14;100.00;97919.31;4911289;29;20071;-72
2021/05/16 10:51:46;;;;;;;1.30;0.30;;;;;;;14.54;100.00;97914.25;4914153;29;20050;-73
2021/05/16 10:54:50;;;;;;;0.10;0.10;;;;;;;14.54;100.00;97919.88;4912496;29;20043;-73
2021/05/16 10:57:53;;;;;;;0.30;0.20;;;;;;;14.54;100.00;97922.66;4917648;29;20035;-73
2021/05/16 11:01:07;;;;;;;0.85;0.13;;;;;;;14.60;100.00;97919.69;4904398;29;20524;-73
2021/05/16 11:04:14;;;;;;;0.20;0.10;;;;;;;14.63;100.00;97924.22;4905306;29;20042;-75
2021/05/16 11:07:32;;;;;;;0.65;0.17;;;;;;;15.07;100.00;97923.72;4914340;29;20385;-73
2021/05/16 11:10:40;;;;;;;7.57;0.90;;;;;;;15.48;100.00;97916.47;4917602;29;20301;-73
2021/05/16 11:13:43;;;;;;;0.20;0.20;;;;;;;15.34;100.00;97912.25;4913204;29;20377;-74
2021/05/16 11:16:57;;;;;;;8.70;0.20;;;;;;;15.27;100.00;97918.59;4912241;29;20042;-75
2021/05/16 11:20:01;;;;;;;0.15;0.10;;;;;;;15.38;100.00;97912.66;4914204;29;20339;-73
2021/05/16 11:23:06;;;;;;;10.52;2.22;;;;;;;15.19;100.00;97902.50;4920625;29;20042;-73
2021/05/16 11:26:15;;;;;;;9.73;3.38;;;;;;;15.17;100.00;97905.09;4917592;29;20148;-77
2021/05/16 11:29:18;;;;;;;6.03;0.55;;;;;;;15.00;100.00;97906.88;4904030;29;20039;-72
2021/05/16 11:32:29;;;;;;;0.25;0.25;;;;;;;14.91;100.00;97896.19;4894569;29;20058;-74
2021/05/16 11:35:37;;;;;;;4.97;1.05;;;;;;;15.05;100.00;97900.38;4895444;29;20039;-73
2021/05/16 11:39:23;;;;;;;4.07;0.68;;;;;;;15.20;100.00;97901.16;4894086;29;21004;-74
2021/05/16 11:42:34;;;;;;;3.90;0.30;;;;;;;15.35;100.00;97897.69;4900001;29;20259;-74
2021/05/16 11:45:42;;;;;;;0.50;0.20;;;;;;;15.57;100.00;97887.88;4921889;29;20054;-74
2021/05/16 11:48:46;;;;;;;0.57;0.40;;;;;;;15.80;100.00;97892.22;4923036;29;20314;-73
2021/05/16 11:51:50;;;;;;;1.10;0.20;;;;;;;16.03;100.00;97895.06;4905863;29;20551;-74
2021/05/16 11:55:02;;;;;;;2.40;0.38;;;;;;;16.35;100.00;97884.00;4902456;29;20761;-73
2021/05/16 11:58:10;;;;;;;1.98;0.40;;;;;;;16.64;100.00;97882.53;4914686;29;20050;-73
2021/05/16 12:01:18;;;;;;;0.52;0.43;;;;;;;16.86;100.00;97891.47;4925164;29;20061;-72
2021/05/16 12:04:25;;;;;;;0.75;0.20;;;;;;;17.03;100.00;97883.91;4918652;29;20050;-73
2021/05/16 12:07:30;;;;;;;0.77;0.55;;;;;;;17.08;100.00;97885.03;4920562;29;20058;-72
2021/05/16 12:10:35;;;;;;;2.58;0.43;;;;;;;17.10;100.00;97880.34;4917999;29;20062;-73
2021/05/16 12:13:41;;;;;;;4.30;0.47;;;;;;;16.95;100.00;97879.63;4919703;29;20058;-72
2021/05/16 12:16:56;;;;;;;1.40;1.00;;;;;;;16.78;100.00;97882.31;4920679;29;20050;-72
2021/05/16 12:20:02;;;;;;;2.53;0.43;;;;;;;16.83;100.00;97884.19;4921248;29;20587;-73
2021/05/16 12:23:05;;;;;;;1.90;0.10;;;;;;;17.14;100.00;97868.69;4921683;29;20782;-73
2021/05/16 12:26:09;;;;;;;3.95;0.30;;;;;;;17.18;100.00;97855.72;4920334;29;20034;-72
2021/05/16 12:29:16;;;;;;;2.70;0.47;;;;;;;16.74;100.00;97867.88;4908081;29;20054;-71
2021/05/16 12:32:30;;;;;;;2.38;0.17;;;;;;;16.43;100.00;97867.91;4922890;29;20427;-71
2021/05/16 12:35:43;;;;;;;0.68;0.32;;;;;;;16.14;100.00;97875.03;4911264;29;20231;-72
2021/05/16 12:38:59;;;;;;;2.53;0.10;;;;;;;16.37;100.00;97870.16;4917174;29;20040;-72
2021/05/16 12:42:27;;;;;;;0.32;0.20;;;;;;;16.51;100.00;97871.50;4919494;29;20439;-72
2021/05/16 12:45:33;;;;;;;5.25;0.30;;;;;;;16.25;100.00;97871.84;4920010;29;20042;-72
2021/05/16 12:48:40;;;;;;;3.85;0.38;;;;;;;15.97;100.00;97860.06;4921324;29;20055;-71
2021/05/16 12:51:58;;;;;;;2.75;0.90;;;;;;;15.91;100.00;97860.25;4909668;29;20044;-72
2021/05/16 12:55:05;;;;;;;2.15;0.10;;;;;;;15.88;100.00;97856.50;4921845;29;20301;-72
2021/05/16 12:58:21;;;;;;;1.17;0.75;;;;;;;15.70;100.00;97865.28;4910341;29;20069;-72
2021/05/16 13:01:28;;;;;;;0.68;0.17;;;;;;;15.37;100.00;97869.09;4908444;29;20051;-71
2021/05/16 13:04:58;;;;;;;1.35;0.13;;;;;;;15.32;100.00;97872.81;4921580;29;20035;-72
2021/05/16 13:08:03;;;;;;;1.70;0.60;;;;;;;15.45;100.00;97872.69;4920813;28;20055;-71
2021/05/16 13:11:09;;;;;;;4.10;0.60;;;;;;;15.38;100.00;97878.97;4920936;29;20046;-72
2021/05/16 13:14:40;;;;;;;1.30;0.35;;;;;;;15.69;100.00;97880.59;4909628;29;20070;-70
2021/05/16 13:17:44;;;;;;;9.23;0.47;;;;;;;16.05;100.00;97874.84;4858836;29;20083;-77
2021/05/16 13:20:48;;;;;;;4.60;1.52;;;;;;;16.34;100.00;97882.53;4852501;29;20287;-76
2021/05/16 13:23:51;;;;;;;0.28;0.15;;;;;;;16.45;100.00;97887.00;4854677;29;20059;-76
2021/05/16 13:27:00;;;;;;;5.78;0.20;;;;;;;16.43;100.00;97884.00;4861040;29;20068;-76
2021/05/16 13:30:06;;;;;;;0.80;0.17;;;;;;;16.06;100.00;97885.53;4841445;29;20088;-75
2021/05/16 13:33:15;;;;;;;0.10;0.10;;;;;;;15.71;100.00;97889.22;4847143;29;20060;-81
2021/05/16 13:36:22;;;;;;;0.68;0.30;;;;;;;15.40;100.00;97901.66;4856043;29;20098;-79
2021/05/16 13:39:28;;;;;;;2.55;0.85;;;;;;;14.97;100.00;97902.38;4846610;29;20915;-84
2021/05/16 13:42:31;;;;;;;2.72;0.30;;;;;;;14.59;100.00;97913.38;4865931;29;20861;-77
2021/05/16 13:45:35;;;;;;;0.15;0.15;;;;;;;14.24;100.00;97902.81;4893989;29;20063;-77
2021/05/16 13:48:39;;;;;;;0.35;0.25;;;;;;;14.01;100.00;97904.66;4891295;29;20079;-76
2021/05/16 13:51:43;;;;;;;0.10;0.10;;;;;;;13.82;100.00;97915.31;4886603;29;20527;-75
2021/05/16 13:54:49;;;;;;;3.05;0.10;;;;;;;13.72;100.00;97914.25;4878035;29;20067;-78
2021/05/16 13:57:53;;;;;;;1.15;0.25;;;;;;;13.65;100.00;97908.03;4888364;29;20063;-77
2021/05/16 14:00:57;;;;;;;0.10;0.10;;;;;;;13.54;100.00;97905.50;4896669;29;20060;-78
2021/05/16 14:04:00;;;;;;;4.47;0.35;;;;;;;13.53;100.00;97901.22;4898633;29;20134;-80
2021/05/16 14:07:04;;;;;;;2.45;0.40;;;;;;;13.53;100.00;97890.03;4899843;29;20063;-78
2021/05/16 14:10:08;;;;;;;0.80;0.10;;;;;;;13.60;100.00;97894.94;4897266;29;20063;-75
2021/05/16 14:13:12;;;;;;;0.20;0.10;;;;;;;13.68;100.00;97883.84;4894903;29;20056;-79
2021/05/16 14:16:15;;;;;;;0.10;0.10;;;;;;;13.85;100.00;97889.03;4921571;29;20051;-76
2021/05/16 14:19:19;;;;;;;2.47;0.20;;;;;;;13.91;100.00;97884.78;4929987;29;20063;-76
2021/05/16 14:22:23;;;;;;;0.30;0.30;;;;;;;13.94;100.00;97889.31;4930152;29;20055;-77
2021/05/16 14:25:27;;;;;;;5.72;1.35;;;;;;;13.86;100.00;97879.34;4934163;29;20067;-77
2021/05/16 14:28:30;;;;;;;0.98;0.35;;;;;;;13.92;100.00;97879.94;4924597;28;20541;-77
2021/05/16 14:31:37;;;;;;;0.55;0.20;;;;;;;13.91;100.00;97878.44;4921375;28;20724;-76